LGIO

Ioannina Airport

Ioannina, Greece
TAF LGIO 182300Z 1900/1909 VRB03KT 9999 FEW005 BKN025 BKN080 TEMPO 1900/1903 5000 RA SCT005 BKN020 OVC080 PROB40 TEMPO 1903/1908 0500 FG BKN001 OVC020
Issued Valid From Valid To
Jan-18 @ 23:00 UTC
(3 hours ago)
Jan-19 @ 00:00 UTC
(2 hours ago)
Jan-19 @ 09:00 UTC
(in 7 hours)
Jan-19 @ 00:00 to Jan-19 @ 09:00
TAF LGIO 182300Z 1900/1909 VRB03KT 9999 FEW005 BKN025 BKN080
Wind Visibility Clouds
Variable at 3 knots 10,000+ meters
  • Few at 500' AGL
  • Broken at 2,500' AGL
  • Broken at 8,000' AGL
Temporary Jan-19 @ 00:00 to Jan-19 @ 03:00
TEMPO 1900/1903 5000 RA SCT005 BKN020 OVC080
Visibility Clouds Conditions
5,005 meters
  • Scattered at 500' AGL
  • Broken at 2,000' AGL
  • Overcast at 8,000' AGL
  • Rain
Temporary  (Probability 40%) Jan-19 @ 03:00 to Jan-19 @ 08:00
PROB40 TEMPO 1903/1908 0500 FG BKN001 OVC020
Visibility Clouds Conditions
499 meters
  • Broken at 100' AGL
  • Overcast at 2,000' AGL
  • Fog
TAF LGIO 182300Z 1900/1909 VRB03KT 9999 FEW005 BKN025 BKN080 TEMPO 1900/1903 5000 RA SCT005 BKN020 OVC080 PROB40 TEMPO 1903/1908 0500 FG BKN001 OVC020
Issued Jan-18 @ 23:00 UTC
(3 hours ago)
Valid From Jan-19 @ 00:00 UTC
(2 hours ago)
Valid To Jan-19 @ 09:00 UTC
(in 7 hours)
Jan-19 @ 00:00 - Jan-19 @ 09:00
Wind Visibility
Variable at 3 knots 10,000+ meters
Clouds
  • Few at 500' AGL
  • Broken at 2,500' AGL
  • Broken at 8,000' AGL
Temporary Jan-19 @ 00:00 - Jan-19 @ 03:00
Clouds
  • Scattered at 500' AGL
  • Broken at 2,000' AGL
  • Overcast at 8,000' AGL
Conditions
  • Rain
Probability 40% Temporary Jan-19 @ 03:00 - Jan-19 @ 08:00
Clouds
  • Broken at 100' AGL
  • Overcast at 2,000' AGL
Conditions
  • Fog